sensor_id;sensor_type;location;lat;lon;timestamp;P1;durP1;ratioP1;P2;durP2;ratioP2
67986;SDS011;54767;53.800;15.956;2023-07-20T00:00:00;5.70;;;3.10;;
67986;SDS011;54767;53.800;15.956;2023-07-20T00:02:29;3.00;;;2.70;;
67986;SDS011;54767;53.800;15.956;2023-07-20T00:04:57;3.40;;;2.70;;
67986;SDS011;54767;53.800;15.956;2023-07-20T00:07:25;4.40;;;2.70;;
67986;SDS011;54767;53.800;15.956;2023-07-20T00:09:54;3.90;;;2.40;;
67986;SDS011;54767;53.800;15.956;2023-07-20T00:12:22;3.50;;;2.60;;
67986;SDS011;54767;53.800;15.956;2023-07-20T00:14:50;4.20;;;2.70;;
67986;SDS011;54767;53.800;15.956;2023-07-20T00:17:21;4.70;;;2.80;;
67986;SDS011;54767;53.800;15.956;2023-07-20T00:19:50;4.00;;;2.60;;
67986;SDS011;54767;53.800;15.956;2023-07-20T00:22:18;3.10;;;2.80;;
67986;SDS011;54767;53.800;15.956;2023-07-20T00:24:47;3.00;;;2.70;;
67986;SDS011;54767;53.800;15.956;2023-07-20T00:27:15;2.60;;;2.40;;
67986;SDS011;54767;53.800;15.956;2023-07-20T00:29:43;2.70;;;2.50;;
67986;SDS011;54767;53.800;15.956;2023-07-20T00:32:12;3.10;;;2.80;;
67986;SDS011;54767;53.800;15.956;2023-07-20T00:34:40;3.20;;;2.70;;
67986;SDS011;54767;53.800;15.956;2023-07-20T00:37:08;3.50;;;2.70;;
67986;SDS011;54767;53.800;15.956;2023-07-20T00:39:36;3.60;;;2.60;;
67986;SDS011;54767;53.800;15.956;2023-07-20T00:42:05;3.20;;;2.90;;
67986;SDS011;54767;53.800;15.956;2023-07-20T00:44:33;4.20;;;3.10;;
67986;SDS011;54767;53.800;15.956;2023-07-20T00:47:03;3.40;;;2.60;;
67986;SDS011;54767;53.800;15.956;2023-07-20T00:49:32;2.90;;;2.60;;
67986;SDS011;54767;53.800;15.956;2023-07-20T00:52:01;3.40;;;2.50;;
67986;SDS011;54767;53.800;15.956;2023-07-20T00:54:31;3.10;;;2.60;;
67986;SDS011;54767;53.800;15.956;2023-07-20T00:57:01;3.30;;;2.70;;
67986;SDS011;54767;53.800;15.956;2023-07-20T00:59:29;5.20;;;2.40;;
67986;SDS011;54767;53.800;15.956;2023-07-20T01:01:57;4.50;;;2.90;;
67986;SDS011;54767;53.800;15.956;2023-07-20T01:04:26;3.40;;;2.70;;
67986;SDS011;54767;53.800;15.956;2023-07-20T01:07:12;2.70;;;2.40;;
67986;SDS011;54767;53.800;15.956;2023-07-20T01:09:56;3.30;;;2.60;;
67986;SDS011;54767;53.800;15.956;2023-07-20T01:12:53;4.30;;;2.90;;
67986;SDS011;54767;53.800;15.956;2023-07-20T01:17:52;4.20;;;2.40;;
67986;SDS011;54767;53.800;15.956;2023-07-20T01:20:20;4.20;;;2.50;;
67986;SDS011;54767;53.800;15.956;2023-07-20T01:33:56;2.80;;;2.60;;
67986;SDS011;54767;53.800;15.956;2023-07-20T01:36:26;3.60;;;2.70;;
67986;SDS011;54767;53.800;15.956;2023-07-20T01:38:58;4.80;;;2.70;;
67986;SDS011;54767;53.800;15.956;2023-07-20T01:41:27;3.10;;;2.70;;
67986;SDS011;54767;53.800;15.956;2023-07-20T01:43:58;4.00;;;2.60;;
67986;SDS011;54767;53.800;15.956;2023-07-20T01:46:30;3.40;;;2.50;;
67986;SDS011;54767;53.800;15.956;2023-07-20T01:48:58;2.50;;;2.20;;
67986;SDS011;54767;53.800;15.956;2023-07-20T01:51:27;3.10;;;2.30;;
67986;SDS011;54767;53.800;15.956;2023-07-20T01:53:55;3.10;;;2.50;;
67986;SDS011;54767;53.800;15.956;2023-07-20T01:56:24;3.80;;;2.50;;
67986;SDS011;54767;53.800;15.956;2023-07-20T01:58:52;4.10;;;2.70;;
67986;SDS011;54767;53.800;15.956;2023-07-20T02:01:20;3.60;;;2.40;;
67986;SDS011;54767;53.800;15.956;2023-07-20T02:03:49;3.70;;;2.70;;
67986;SDS011;54767;53.800;15.956;2023-07-20T02:06:17;2.70;;;2.50;;
67986;SDS011;54767;53.800;15.956;2023-07-20T02:08:45;3.80;;;2.60;;
67986;SDS011;54767;53.800;15.956;2023-07-20T02:11:14;3.30;;;2.50;;
67986;SDS011;54767;53.800;15.956;2023-07-20T02:13:42;4.20;;;2.70;;
67986;SDS011;54767;53.800;15.956;2023-07-20T02:16:10;4.00;;;2.40;;
67986;SDS011;54767;53.800;15.956;2023-07-20T02:18:39;2.70;;;2.50;;
67986;SDS011;54767;53.800;15.956;2023-07-20T02:21:07;3.20;;;2.40;;
67986;SDS011;54767;53.800;15.956;2023-07-20T02:23:36;2.90;;;2.60;;
67986;SDS011;54767;53.800;15.956;2023-07-20T02:26:04;4.50;;;2.70;;
67986;SDS011;54767;53.800;15.956;2023-07-20T02:28:32;2.70;;;2.40;;
67986;SDS011;54767;53.800;15.956;2023-07-20T02:31:00;3.20;;;2.20;;
67986;SDS011;54767;53.800;15.956;2023-07-20T02:33:29;4.10;;;2.60;;
67986;SDS011;54767;53.800;15.956;2023-07-20T02:35:57;3.20;;;2.50;;
67986;SDS011;54767;53.800;15.956;2023-07-20T02:38:25;4.30;;;2.60;;
67986;SDS011;54767;53.800;15.956;2023-07-20T02:40:54;3.20;;;2.70;;
67986;SDS011;54767;53.800;15.956;2023-07-20T02:43:22;7.00;;;2.50;;
67986;SDS011;54767;53.800;15.956;2023-07-20T02:45:50;2.60;;;2.40;;
67986;SDS011;54767;53.800;15.956;2023-07-20T02:48:19;4.00;;;2.70;;
67986;SDS011;54767;53.800;15.956;2023-07-20T02:50:47;3.80;;;2.70;;
67986;SDS011;54767;53.800;15.956;2023-07-20T02:53:16;3.90;;;2.80;;
67986;SDS011;54767;53.800;15.956;2023-07-20T02:55:44;2.80;;;2.60;;
67986;SDS011;54767;53.800;15.956;2023-07-20T02:58:12;3.50;;;2.50;;
67986;SDS011;54767;53.800;15.956;2023-07-20T03:00:42;3.40;;;2.60;;
67986;SDS011;54767;53.800;15.956;2023-07-20T03:03:10;6.20;;;2.80;;
67986;SDS011;54767;53.800;15.956;2023-07-20T03:05:42;4.60;;;2.60;;
67986;SDS011;54767;53.800;15.956;2023-07-20T03:08:10;4.30;;;2.80;;
67986;SDS011;54767;53.800;15.956;2023-07-20T03:10:39;3.20;;;2.90;;
67986;SDS011;54767;53.800;15.956;2023-07-20T03:13:11;4.80;;;2.60;;
67986;SDS011;54767;53.800;15.956;2023-07-20T03:15:40;4.70;;;2.80;;
67986;SDS011;54767;53.800;15.956;2023-07-20T03:18:09;2.80;;;2.50;;
67986;SDS011;54767;53.800;15.956;2023-07-20T03:20:38;6.20;;;2.60;;
67986;SDS011;54767;53.800;15.956;2023-07-20T03:23:06;7.30;;;3.00;;
67986;SDS011;54767;53.800;15.956;2023-07-20T03:25:34;5.60;;;2.90;;
67986;SDS011;54767;53.800;15.956;2023-07-20T03:28:05;4.00;;;2.90;;
67986;SDS011;54767;53.800;15.956;2023-07-20T03:30:34;3.40;;;2.80;;
67986;SDS011;54767;53.800;15.956;2023-07-20T03:33:03;4.30;;;3.00;;
67986;SDS011;54767;53.800;15.956;2023-07-20T03:35:32;3.90;;;2.70;;
67986;SDS011;54767;53.800;15.956;2023-07-20T03:38:00;3.10;;;2.80;;
67986;SDS011;54767;53.800;15.956;2023-07-20T03:40:28;3.30;;;2.90;;
67986;SDS011;54767;53.800;15.956;2023-07-20T03:42:56;4.90;;;3.20;;
67986;SDS011;54767;53.800;15.956;2023-07-20T03:45:25;3.40;;;3.10;;
67986;SDS011;54767;53.800;15.956;2023-07-20T03:47:53;4.20;;;3.00;;
67986;SDS011;54767;53.800;15.956;2023-07-20T03:50:22;3.20;;;2.90;;
67986;SDS011;54767;53.800;15.956;2023-07-20T03:52:53;3.20;;;3.00;;
67986;SDS011;54767;53.800;15.956;2023-07-20T03:55:21;5.20;;;2.80;;
67986;SDS011;54767;53.800;15.956;2023-07-20T03:57:49;3.90;;;3.00;;
67986;SDS011;54767;53.800;15.956;2023-07-20T04:00:18;3.60;;;2.80;;
67986;SDS011;54767;53.800;15.956;2023-07-20T04:02:47;3.60;;;3.00;;
67986;SDS011;54767;53.800;15.956;2023-07-20T04:05:15;4.00;;;2.80;;
67986;SDS011;54767;53.800;15.956;2023-07-20T04:07:44;3.50;;;2.70;;
67986;SDS011;54767;53.800;15.956;2023-07-20T04:10:12;3.40;;;3.10;;
67986;SDS011;54767;53.800;15.956;2023-07-20T04:12:43;3.30;;;3.00;;
67986;SDS011;54767;53.800;15.956;2023-07-20T04:15:32;3.40;;;3.00;;
67986;SDS011;54767;53.800;15.956;2023-07-20T04:18:01;3.30;;;2.90;;
67986;SDS011;54767;53.800;15.956;2023-07-20T04:20:30;3.10;;;2.80;;
67986;SDS011;54767;53.800;15.956;2023-07-20T04:22:58;4.90;;;3.20;;
67986;SDS011;54767;53.800;15.956;2023-07-20T04:25:26;3.50;;;3.00;;
67986;SDS011;54767;53.800;15.956;2023-07-20T04:27:55;4.40;;;3.10;;
67986;SDS011;54767;53.800;15.956;2023-07-20T04:30:23;4.70;;;3.00;;
67986;SDS011;54767;53.800;15.956;2023-07-20T04:32:52;3.20;;;3.00;;
67986;SDS011;54767;53.800;15.956;2023-07-20T04:36:07;3.80;;;3.00;;
67986;SDS011;54767;53.800;15.956;2023-07-20T04:38:13;4.00;;;2.90;;
67986;SDS011;54767;53.800;15.956;2023-07-20T04:40:46;4.10;;;3.20;;
67986;SDS011;54767;53.800;15.956;2023-07-20T04:43:16;3.80;;;3.20;;
67986;SDS011;54767;53.800;15.956;2023-07-20T04:48:14;4.30;;;2.90;;
67986;SDS011;54767;53.800;15.956;2023-07-20T04:50:45;5.30;;;3.00;;
67986;SDS011;54767;53.800;15.956;2023-07-20T04:53:13;3.30;;;2.90;;
67986;SDS011;54767;53.800;15.956;2023-07-20T04:55:47;3.20;;;2.90;;
67986;SDS011;54767;53.800;15.956;2023-07-20T04:58:21;3.70;;;2.90;;
67986;SDS011;54767;53.800;15.956;2023-07-20T05:00:50;3.70;;;2.90;;
67986;SDS011;54767;53.800;15.956;2023-07-20T05:03:18;3.70;;;2.90;;
67986;SDS011;54767;53.800;15.956;2023-07-20T05:05:47;4.60;;;3.20;;
67986;SDS011;54767;53.800;15.956;2023-07-20T05:08:18;3.70;;;3.30;;
67986;SDS011;54767;53.800;15.956;2023-07-20T05:10:47;5.10;;;3.20;;
67986;SDS011;54767;53.800;15.956;2023-07-20T05:13:15;3.40;;;2.90;;
67986;SDS011;54767;53.800;15.956;2023-07-20T05:15:44;4.00;;;3.40;;
67986;SDS011;54767;53.800;15.956;2023-07-20T05:18:12;3.90;;;3.10;;
67986;SDS011;54767;53.800;15.956;2023-07-20T05:20:41;3.80;;;3.50;;
67986;SDS011;54767;53.800;15.956;2023-07-20T05:23:09;4.30;;;3.30;;
67986;SDS011;54767;53.800;15.956;2023-07-20T05:25:37;4.80;;;3.50;;
67986;SDS011;54767;53.800;15.956;2023-07-20T05:28:06;4.00;;;3.50;;
67986;SDS011;54767;53.800;15.956;2023-07-20T05:30:34;4.60;;;3.80;;
67986;SDS011;54767;53.800;15.956;2023-07-20T05:33:02;4.30;;;3.60;;
67986;SDS011;54767;53.800;15.956;2023-07-20T05:35:31;4.70;;;3.30;;
67986;SDS011;54767;53.800;15.956;2023-07-20T05:37:59;5.90;;;3.60;;
67986;SDS011;54767;53.800;15.956;2023-07-20T05:40:28;4.60;;;3.00;;
67986;SDS011;54767;53.800;15.956;2023-07-20T05:42:56;6.90;;;3.40;;
67986;SDS011;54767;53.800;15.956;2023-07-20T05:45:25;3.60;;;3.20;;
67986;SDS011;54767;53.800;15.956;2023-07-20T05:47:53;3.60;;;3.20;;
67986;SDS011;54767;53.800;15.956;2023-07-20T05:50:22;6.60;;;3.50;;
67986;SDS011;54767;53.800;15.956;2023-07-20T05:52:54;4.30;;;3.00;;
67986;SDS011;54767;53.800;15.956;2023-07-20T05:55:22;5.20;;;3.20;;
67986;SDS011;54767;53.800;15.956;2023-07-20T05:57:50;4.30;;;3.20;;
67986;SDS011;54767;53.800;15.956;2023-07-20T06:00:19;3.60;;;2.90;;
67986;SDS011;54767;53.800;15.956;2023-07-20T06:02:54;4.40;;;3.20;;
67986;SDS011;54767;53.800;15.956;2023-07-20T06:05:23;5.00;;;3.00;;
67986;SDS011;54767;53.800;15.956;2023-07-20T06:07:56;3.30;;;2.60;;
67986;SDS011;54767;53.800;15.956;2023-07-20T06:10:25;3.20;;;2.60;;
67986;SDS011;54767;53.800;15.956;2023-07-20T06:12:54;2.60;;;2.40;;
67986;SDS011;54767;53.800;15.956;2023-07-20T06:17:57;2.30;;;2.20;;
67986;SDS011;54767;53.800;15.956;2023-07-20T06:20:26;2.60;;;1.90;;
67986;SDS011;54767;53.800;15.956;2023-07-20T06:22:55;2.70;;;1.90;;
67986;SDS011;54767;53.800;15.956;2023-07-20T06:25:23;2.50;;;1.60;;
67986;SDS011;54767;53.800;15.956;2023-07-20T06:27:51;1.90;;;1.70;;
67986;SDS011;54767;53.800;15.956;2023-07-20T06:30:20;2.60;;;1.70;;
67986;SDS011;54767;53.800;15.956;2023-07-20T06:32:48;3.20;;;1.70;;
67986;SDS011;54767;53.800;15.956;2023-07-20T06:35:17;1.70;;;1.60;;
67986;SDS011;54767;53.800;15.956;2023-07-20T06:37:45;2.00;;;1.90;;
67986;SDS011;54767;53.800;15.956;2023-07-20T06:40:13;3.00;;;2.10;;
67986;SDS011;54767;53.800;15.956;2023-07-20T06:42:45;1.70;;;1.50;;
67986;SDS011;54767;53.800;15.956;2023-07-20T06:45:16;2.70;;;1.40;;
67986;SDS011;54767;53.800;15.956;2023-07-20T06:47:45;2.80;;;1.40;;
67986;SDS011;54767;53.800;15.956;2023-07-20T06:50:15;1.40;;;1.40;;
67986;SDS011;54767;53.800;15.956;2023-07-20T06:52:45;1.20;;;1.20;;
67986;SDS011;54767;53.800;15.956;2023-07-20T06:55:16;2.40;;;1.40;;
67986;SDS011;54767;53.800;15.956;2023-07-20T06:57:50;1.30;;;1.20;;
67986;SDS011;54767;53.800;15.956;2023-07-20T07:00:25;1.30;;;1.20;;
67986;SDS011;54767;53.800;15.956;2023-07-20T07:02:53;1.40;;;1.10;;
67986;SDS011;54767;53.800;15.956;2023-07-20T07:05:22;1.10;;;1.10;;
67986;SDS011;54767;53.800;15.956;2023-07-20T07:07:50;3.70;;;0.90;;
67986;SDS011;54767;53.800;15.956;2023-07-20T07:10:18;0.90;;;0.90;;
67986;SDS011;54767;53.800;15.956;2023-07-20T07:12:47;1.90;;;1.10;;
67986;SDS011;54767;53.800;15.956;2023-07-20T07:15:15;2.70;;;1.10;;
67986;SDS011;54767;53.800;15.956;2023-07-20T07:17:44;1.30;;;1.20;;
67986;SDS011;54767;53.800;15.956;2023-07-20T07:20:12;0.70;;;0.70;;
67986;SDS011;54767;53.800;15.956;2023-07-20T07:22:49;46.90;;;4.10;;
67986;SDS011;54767;53.800;15.956;2023-07-20T07:25:23;2.80;;;0.80;;
67986;SDS011;54767;53.800;15.956;2023-07-20T07:27:52;2.50;;;0.90;;
67986;SDS011;54767;53.800;15.956;2023-07-20T07:30:22;1.00;;;0.90;;
67986;SDS011;54767;53.800;15.956;2023-07-20T07:32:50;1.90;;;1.20;;
67986;SDS011;54767;53.800;15.956;2023-07-20T07:35:19;0.80;;;0.80;;
67986;SDS011;54767;53.800;15.956;2023-07-20T07:37:47;1.00;;;1.00;;
67986;SDS011;54767;53.800;15.956;2023-07-20T07:40:19;2.10;;;1.00;;
67986;SDS011;54767;53.800;15.956;2023-07-20T07:42:47;1.30;;;1.20;;
67986;SDS011;54767;53.800;15.956;2023-07-20T07:45:16;1.20;;;0.80;;
67986;SDS011;54767;53.800;15.956;2023-07-20T07:47:44;0.80;;;0.70;;
67986;SDS011;54767;53.800;15.956;2023-07-20T07:50:13;0.60;;;0.60;;
67986;SDS011;54767;53.800;15.956;2023-07-20T07:52:42;1.70;;;0.70;;
67986;SDS011;54767;53.800;15.956;2023-07-20T07:55:10;1.30;;;0.70;;
67986;SDS011;54767;53.800;15.956;2023-07-20T07:57:39;1.00;;;0.80;;
67986;SDS011;54767;53.800;15.956;2023-07-20T08:00:07;1.20;;;0.60;;
67986;SDS011;54767;53.800;15.956;2023-07-20T08:02:42;0.50;;;0.50;;
67986;SDS011;54767;53.800;15.956;2023-07-20T08:05:11;1.30;;;0.70;;
67986;SDS011;54767;53.800;15.956;2023-07-20T08:07:40;0.80;;;0.80;;
67986;SDS011;54767;53.800;15.956;2023-07-20T08:10:08;0.70;;;0.70;;
67986;SDS011;54767;53.800;15.956;2023-07-20T08:12:37;0.60;;;0.60;;
67986;SDS011;54767;53.800;15.956;2023-07-20T08:15:06;0.60;;;0.60;;
67986;SDS011;54767;53.800;15.956;2023-07-20T08:17:35;1.70;;;0.60;;
67986;SDS011;54767;53.800;15.956;2023-07-20T08:20:04;0.40;;;0.40;;
67986;SDS011;54767;53.800;15.956;2023-07-20T08:22:34;0.70;;;0.30;;
67986;SDS011;54767;53.800;15.956;2023-07-20T08:25:02;0.50;;;0.50;;
67986;SDS011;54767;53.800;15.956;2023-07-20T08:27:31;1.90;;;0.50;;
67986;SDS011;54767;53.800;15.956;2023-07-20T08:29:59;1.00;;;0.40;;
67986;SDS011;54767;53.800;15.956;2023-07-20T08:32:27;0.40;;;0.40;;
67986;SDS011;54767;53.800;15.956;2023-07-20T08:34:56;0.30;;;0.30;;
67986;SDS011;54767;53.800;15.956;2023-07-20T08:37:24;0.90;;;0.60;;
67986;SDS011;54767;53.800;15.956;2023-07-20T08:39:53;3.30;;;0.70;;
67986;SDS011;54767;53.800;15.956;2023-07-20T08:42:21;1.70;;;0.70;;
67986;SDS011;54767;53.800;15.956;2023-07-20T08:44:50;0.90;;;0.90;;
67986;SDS011;54767;53.800;15.956;2023-07-20T08:47:21;1.90;;;0.60;;
67986;SDS011;54767;53.800;15.956;2023-07-20T08:49:51;1.10;;;0.60;;
67986;SDS011;54767;53.800;15.956;2023-07-20T08:52:24;4.60;;;0.80;;
67986;SDS011;54767;53.800;15.956;2023-07-20T08:54:57;2.40;;;1.00;;
67986;SDS011;54767;53.800;15.956;2023-07-20T08:57:34;3.20;;;0.70;;
67986;SDS011;54767;53.800;15.956;2023-07-20T09:00:07;1.90;;;0.50;;
67986;SDS011;54767;53.800;15.956;2023-07-20T09:02:41;0.70;;;0.70;;
67986;SDS011;54767;53.800;15.956;2023-07-20T09:05:13;0.80;;;0.80;;
67986;SDS011;54767;53.800;15.956;2023-07-20T09:12:35;1.40;;;0.70;;
67986;SDS011;54767;53.800;15.956;2023-07-20T09:16:08;0.40;;;0.40;;
67986;SDS011;54767;53.800;15.956;2023-07-20T09:22:44;0.70;;;0.70;;
67986;SDS011;54767;53.800;15.956;2023-07-20T09:25:14;1.20;;;0.70;;
67986;SDS011;54767;53.800;15.956;2023-07-20T09:27:57;0.70;;;0.50;;
67986;SDS011;54767;53.800;15.956;2023-07-20T09:30:28;0.90;;;0.60;;
67986;SDS011;54767;53.800;15.956;2023-07-20T09:32:54;0.80;;;0.50;;
67986;SDS011;54767;53.800;15.956;2023-07-20T09:35:21;0.80;;;0.80;;
67986;SDS011;54767;53.800;15.956;2023-07-20T09:38:15;3.30;;;0.60;;
67986;SDS011;54767;53.800;15.956;2023-07-20T09:40:47;0.80;;;0.60;;
67986;SDS011;54767;53.800;15.956;2023-07-20T09:43:21;0.50;;;0.50;;
67986;SDS011;54767;53.800;15.956;2023-07-20T09:45:52;1.20;;;0.80;;
67986;SDS011;54767;53.800;15.956;2023-07-20T09:48:26;2.70;;;0.80;;
67986;SDS011;54767;53.800;15.956;2023-07-20T09:50:58;1.80;;;0.90;;
67986;SDS011;54767;53.800;15.956;2023-07-20T09:53:26;4.20;;;1.20;;
67986;SDS011;54767;53.800;15.956;2023-07-20T09:55:56;1.60;;;0.90;;
67986;SDS011;54767;53.800;15.956;2023-07-20T09:58:26;1.30;;;0.80;;
67986;SDS011;54767;53.800;15.956;2023-07-20T10:00:56;1.50;;;0.90;;
67986;SDS011;54767;53.800;15.956;2023-07-20T10:03:28;0.90;;;0.90;;
67986;SDS011;54767;53.800;15.956;2023-07-20T10:06:04;2.10;;;1.00;;
67986;SDS011;54767;53.800;15.956;2023-07-20T10:08:41;1.10;;;1.10;;
67986;SDS011;54767;53.800;15.956;2023-07-20T10:11:15;3.30;;;1.20;;
67986;SDS011;54767;53.800;15.956;2023-07-20T10:13:45;1.80;;;1.30;;
67986;SDS011;54767;53.800;15.956;2023-07-20T10:16:22;1.70;;;1.10;;
67986;SDS011;54767;53.800;15.956;2023-07-20T10:22:19;1.10;;;1.10;;
67986;SDS011;54767;53.800;15.956;2023-07-20T10:24:53;3.80;;;1.30;;
67986;SDS011;54767;53.800;15.956;2023-07-20T10:27:27;2.20;;;1.50;;
67986;SDS011;54767;53.800;15.956;2023-07-20T10:29:56;1.20;;;1.00;;
67986;SDS011;54767;53.800;15.956;2023-07-20T10:32:27;3.20;;;1.20;;
67986;SDS011;54767;53.800;15.956;2023-07-20T10:34:56;1.20;;;1.10;;
67986;SDS011;54767;53.800;15.956;2023-07-20T10:40:24;1.50;;;1.30;;
67986;SDS011;54767;53.800;15.956;2023-07-20T10:43:00;3.40;;;1.00;;
67986;SDS011;54767;53.800;15.956;2023-07-20T10:48:05;2.50;;;1.50;;
67986;SDS011;54767;53.800;15.956;2023-07-20T10:50:42;1.00;;;0.80;;
67986;SDS011;54767;53.800;15.956;2023-07-20T10:53:15;1.20;;;1.10;;
67986;SDS011;54767;53.800;15.956;2023-07-20T10:55:46;3.00;;;1.20;;
67986;SDS011;54767;53.800;15.956;2023-07-20T10:58:19;1.40;;;1.30;;
67986;SDS011;54767;53.800;15.956;2023-07-20T11:00:57;1.30;;;1.20;;
67986;SDS011;54767;53.800;15.956;2023-07-20T11:03:34;3.20;;;1.50;;
67986;SDS011;54767;53.800;15.956;2023-07-20T11:08:55;2.10;;;1.40;;
67986;SDS011;54767;53.800;15.956;2023-07-20T11:11:25;2.10;;;1.40;;
67986;SDS011;54767;53.800;15.956;2023-07-20T11:13:57;1.90;;;1.30;;
67986;SDS011;54767;53.800;15.956;2023-07-20T11:16:34;2.10;;;1.30;;
67986;SDS011;54767;53.800;15.956;2023-07-20T11:19:03;1.50;;;1.00;;
67986;SDS011;54767;53.800;15.956;2023-07-20T11:21:36;2.00;;;1.30;;
67986;SDS011;54767;53.800;15.956;2023-07-20T11:24:22;2.20;;;1.10;;
67986;SDS011;54767;53.800;15.956;2023-07-20T11:26:52;1.50;;;1.30;;
67986;SDS011;54767;53.800;15.956;2023-07-20T11:29:22;3.30;;;1.60;;
67986;SDS011;54767;53.800;15.956;2023-07-20T11:32:00;1.70;;;1.10;;
67986;SDS011;54767;53.800;15.956;2023-07-20T11:34:33;1.50;;;1.10;;
67986;SDS011;54767;53.800;15.956;2023-07-20T11:37:05;2.70;;;1.40;;
67986;SDS011;54767;53.800;15.956;2023-07-20T11:39:40;1.80;;;1.10;;
67986;SDS011;54767;53.800;15.956;2023-07-20T11:43:31;1.70;;;1.30;;
67986;SDS011;54767;53.800;15.956;2023-07-20T11:46:05;3.90;;;1.30;;
67986;SDS011;54767;53.800;15.956;2023-07-20T11:49:20;1.30;;;1.20;;
67986;SDS011;54767;53.800;15.956;2023-07-20T11:51:49;1.50;;;1.40;;
67986;SDS011;54767;53.800;15.956;2023-07-20T11:54:18;1.50;;;1.40;;
67986;SDS011;54767;53.800;15.956;2023-07-20T11:56:46;2.20;;;1.20;;
67986;SDS011;54767;53.800;15.956;2023-07-20T12:01:47;1.50;;;1.40;;
67986;SDS011;54767;53.800;15.956;2023-07-20T12:04:16;2.60;;;1.60;;
67986;SDS011;54767;53.800;15.956;2023-07-20T12:06:48;1.50;;;1.00;;
67986;SDS011;54767;53.800;15.956;2023-07-20T12:09:17;2.90;;;1.20;;
67986;SDS011;54767;53.800;15.956;2023-07-20T12:11:48;1.60;;;1.10;;
67986;SDS011;54767;53.800;15.956;2023-07-20T12:14:25;1.10;;;1.00;;
67986;SDS011;54767;53.800;15.956;2023-07-20T12:16:53;0.80;;;0.80;;
67986;SDS011;54767;53.800;15.956;2023-07-20T12:19:26;1.70;;;1.20;;
67986;SDS011;54767;53.800;15.956;2023-07-20T12:22:01;2.80;;;0.90;;
67986;SDS011;54767;53.800;15.956;2023-07-20T12:24:31;1.90;;;1.00;;
67986;SDS011;54767;53.800;15.956;2023-07-20T12:27:03;1.60;;;0.80;;
67986;SDS011;54767;53.800;15.956;2023-07-20T12:32:04;1.00;;;0.80;;
67986;SDS011;54767;53.800;15.956;2023-07-20T12:34:34;2.30;;;0.90;;
67986;SDS011;54767;53.800;15.956;2023-07-20T12:37:03;0.90;;;0.80;;
67986;SDS011;54767;53.800;15.956;2023-07-20T12:39:34;2.00;;;0.80;;
67986;SDS011;54767;53.800;15.956;2023-07-20T12:42:03;1.30;;;0.90;;
67986;SDS011;54767;53.800;15.956;2023-07-20T12:44:37;0.90;;;0.60;;
67986;SDS011;54767;53.800;15.956;2023-07-20T12:47:06;0.90;;;0.80;;
67986;SDS011;54767;53.800;15.956;2023-07-20T12:52:18;0.80;;;0.70;;
67986;SDS011;54767;53.800;15.956;2023-07-20T12:54:49;0.80;;;0.80;;
67986;SDS011;54767;53.800;15.956;2023-07-20T12:57:32;0.60;;;0.60;;
67986;SDS011;54767;53.800;15.956;2023-07-20T13:00:09;0.70;;;0.70;;
67986;SDS011;54767;53.800;15.956;2023-07-20T13:02:39;2.00;;;0.80;;
67986;SDS011;54767;53.800;15.956;2023-07-20T13:05:09;2.70;;;0.80;;
67986;SDS011;54767;53.800;15.956;2023-07-20T13:07:38;0.70;;;0.70;;
67986;SDS011;54767;53.800;15.956;2023-07-20T13:10:10;2.00;;;0.60;;
67986;SDS011;54767;53.800;15.956;2023-07-20T13:12:45;1.60;;;0.80;;
67986;SDS011;54767;53.800;15.956;2023-07-20T13:19:04;2.90;;;0.90;;
67986;SDS011;54767;53.800;15.956;2023-07-20T13:21:51;2.00;;;0.70;;
67986;SDS011;54767;53.800;15.956;2023-07-20T13:24:23;0.70;;;0.70;;
67986;SDS011;54767;53.800;15.956;2023-07-20T13:26:51;0.60;;;0.60;;
67986;SDS011;54767;53.800;15.956;2023-07-20T13:29:20;2.30;;;0.80;;
67986;SDS011;54767;53.800;15.956;2023-07-20T13:31:51;1.00;;;0.60;;
67986;SDS011;54767;53.800;15.956;2023-07-20T13:34:20;0.70;;;0.70;;
67986;SDS011;54767;53.800;15.956;2023-07-20T13:36:50;0.80;;;0.80;;
67986;SDS011;54767;53.800;15.956;2023-07-20T13:39:19;0.60;;;0.60;;
67986;SDS011;54767;53.800;15.956;2023-07-20T13:43:01;1.10;;;0.80;;
67986;SDS011;54767;53.800;15.956;2023-07-20T13:45:29;1.30;;;0.70;;
67986;SDS011;54767;53.800;15.956;2023-07-20T13:47:58;0.90;;;0.60;;
67986;SDS011;54767;53.800;15.956;2023-07-20T13:50:35;1.00;;;0.80;;
67986;SDS011;54767;53.800;15.956;2023-07-20T13:53:07;1.10;;;0.70;;
67986;SDS011;54767;53.800;15.956;2023-07-20T13:55:38;0.80;;;0.80;;
67986;SDS011;54767;53.800;15.956;2023-07-20T13:58:10;0.60;;;0.60;;
67986;SDS011;54767;53.800;15.956;2023-07-20T14:00:40;2.40;;;1.00;;
67986;SDS011;54767;53.800;15.956;2023-07-20T14:03:09;0.90;;;0.70;;
67986;SDS011;54767;53.800;15.956;2023-07-20T14:05:41;1.80;;;0.80;;
67986;SDS011;54767;53.800;15.956;2023-07-20T14:08:14;1.00;;;0.80;;
67986;SDS011;54767;53.800;15.956;2023-07-20T14:10:46;1.10;;;1.00;;
67986;SDS011;54767;53.800;15.956;2023-07-20T14:13:18;1.20;;;1.00;;
67986;SDS011;54767;53.800;15.956;2023-07-20T14:15:46;1.60;;;0.90;;
67986;SDS011;54767;53.800;15.956;2023-07-20T14:18:14;1.00;;;0.90;;
67986;SDS011;54767;53.800;15.956;2023-07-20T14:20:51;2.70;;;1.10;;
67986;SDS011;54767;53.800;15.956;2023-07-20T14:23:40;1.10;;;1.00;;
67986;SDS011;54767;53.800;15.956;2023-07-20T14:26:13;2.40;;;1.20;;
67986;SDS011;54767;53.800;15.956;2023-07-20T14:28:42;2.80;;;1.50;;
67986;SDS011;54767;53.800;15.956;2023-07-20T14:31:12;3.10;;;1.60;;
67986;SDS011;54767;53.800;15.956;2023-07-20T14:34:52;1.70;;;1.30;;
67986;SDS011;54767;53.800;15.956;2023-07-20T14:45:25;3.00;;;1.10;;
67986;SDS011;54767;53.800;15.956;2023-07-20T14:47:57;6.40;;;1.40;;
67986;SDS011;54767;53.800;15.956;2023-07-20T14:50:26;1.20;;;1.10;;
67986;SDS011;54767;53.800;15.956;2023-07-20T14:52:55;2.60;;;1.30;;
67986;SDS011;54767;53.800;15.956;2023-07-20T14:55:35;2.00;;;1.40;;
67986;SDS011;54767;53.800;15.956;2023-07-20T14:58:04;4.00;;;1.10;;
67986;SDS011;54767;53.800;15.956;2023-07-20T15:00:35;1.90;;;1.30;;
67986;SDS011;54767;53.800;15.956;2023-07-20T15:03:04;1.30;;;1.20;;
67986;SDS011;54767;53.800;15.956;2023-07-20T15:05:33;1.70;;;1.10;;
67986;SDS011;54767;53.800;15.956;2023-07-20T15:08:07;2.40;;;1.30;;
67986;SDS011;54767;53.800;15.956;2023-07-20T15:10:42;1.20;;;1.10;;
67986;SDS011;54767;53.800;15.956;2023-07-20T15:13:24;1.30;;;1.20;;
67986;SDS011;54767;53.800;15.956;2023-07-20T15:15:54;1.90;;;1.20;;
67986;SDS011;54767;53.800;15.956;2023-07-20T15:18:29;2.70;;;1.40;;
67986;SDS011;54767;53.800;15.956;2023-07-20T15:21:29;1.80;;;1.30;;
67986;SDS011;54767;53.800;15.956;2023-07-20T15:24:00;2.90;;;1.30;;
67986;SDS011;54767;53.800;15.956;2023-07-20T15:26:28;2.10;;;1.50;;
67986;SDS011;54767;53.800;15.956;2023-07-20T15:28:59;1.70;;;1.50;;
67986;SDS011;54767;53.800;15.956;2023-07-20T15:31:28;2.30;;;1.50;;
67986;SDS011;54767;53.800;15.956;2023-07-20T15:34:02;3.00;;;1.40;;
67986;SDS011;54767;53.800;15.956;2023-07-20T15:39:20;2.20;;;1.50;;
67986;SDS011;54767;53.800;15.956;2023-07-20T15:53:08;2.30;;;1.60;;
67986;SDS011;54767;53.800;15.956;2023-07-20T16:00:11;1.70;;;1.60;;
67986;SDS011;54767;53.800;15.956;2023-07-20T16:03:17;2.50;;;1.40;;
67986;SDS011;54767;53.800;15.956;2023-07-20T16:05:45;3.10;;;1.50;;
67986;SDS011;54767;53.800;15.956;2023-07-20T16:08:18;3.00;;;1.60;;
67986;SDS011;54767;53.800;15.956;2023-07-20T16:10:51;2.20;;;1.60;;
67986;SDS011;54767;53.800;15.956;2023-07-20T16:13:22;2.30;;;1.90;;
67986;SDS011;54767;53.800;15.956;2023-07-20T16:15:52;3.90;;;1.60;;